Time;durP1;ratioP1;P1;durP2;ratioP2;P2;SDS_P1;SDS_P2;PMS_P1;PMS_P2;Temp;Humidity;BMP_temperature;BMP_pressure;BME280_temperature;BME280_humidity;BME280_pressure;Samples;Min_cycle;Max_cycle;Signal;HPM_P1;HPM_P2
2022/01/21 00:01:45;756094.00;2.52;1304.66;89303.00;0.30;155.10;;;;;7.70;1.00;;;;;;2284386;60;1569;-89
2022/01/21 00:04:12;551708.00;1.84;950.90;0.00;0.00;0.62;;;;;7.80;1.00;;;;;;2284377;60;1365;-90
2022/01/21 00:06:39;1746846.00;5.82;3116.81;113335.00;0.38;196.58;;;;;8.10;1.00;;;;;;2284360;60;1123;-90
2022/01/21 00:09:10;2023942.00;6.75;3673.60;193447.00;0.64;334.64;;;;;7.50;1.00;;;;;;2284314;60;1648;-92
2022/01/21 00:11:43;959093.00;3.20;1660.15;9594.00;0.03;17.25;;;;;7.60;1.00;;;;;;2284326;60;1531;-91
2022/01/21 00:14:35;658202.00;2.19;1134.83;0.00;0.00;0.62;;;;;7.80;1.00;;;;;;2284295;60;1831;-89
2022/01/21 00:17:15;877865.00;2.93;1517.28;79717.00;0.27;138.55;;;;;7.80;1.00;;;;;;2284380;60;1632;-92
2022/01/21 00:19:45;463973.00;1.55;799.82;4648.00;0.02;8.68;;;;;7.40;1.00;;;;;;2284356;60;1693;-91
2022/01/21 00:30:31;839581.00;2.80;1450.24;32799.00;0.11;57.43;;;;;6.80;1.00;;;;;;2284377;60;832;-90
2022/01/21 01:40:22;1430475.00;4.77;2512.97;0.00;0.00;0.62;;;;;8.90;1.00;;;;;;2282399;61;1290;-92
2022/01/21 01:51:04;470954.00;1.57;811.83;0.00;0.00;0.62;;;;;9.10;1.00;;;;;;2260052;61;1121;-89
2022/01/21 01:53:35;687851.00;2.29;1186.18;0.00;0.00;0.62;;;;;8.90;1.00;;;;;;2253353;61;2001;-90
2022/01/21 01:56:07;710169.00;2.37;1224.88;89131.00;0.30;154.81;;;;;8.90;1.00;;;;;;2260126;61;1038;-90
2022/01/21 01:58:37;747274.00;2.49;1289.32;0.00;0.00;0.62;;;;;9.50;1.00;;;;;;2259934;61;1785;-90
2022/01/21 02:01:05;824064.00;2.75;1423.12;92166.00;0.31;160.05;;;;;9.50;1.00;;;;;;2264818;61;1444;-90
2022/01/21 02:03:33;537393.00;1.79;926.23;52453.00;0.17;91.43;;;;;9.40;1.00;;;;;;2267998;61;1684;-89
2022/01/21 02:06:00;501998.00;1.67;865.26;0.00;0.00;0.62;;;;;9.50;1.00;;;;;;2263857;61;974;-90
2022/01/21 02:08:29;899103.00;3.00;1554.54;38954.00;0.13;68.08;;;;;9.50;1.00;;;;;;2263923;61;1048;-89
2022/01/21 02:10:57;817683.00;2.73;1411.98;12994.00;0.04;23.14;;;;;9.50;1.00;;;;;;2263870;61;1023;-91
2022/01/21 02:13:28;862082.00;2.87;1489.62;62439.00;0.21;108.69;;;;;9.40;1.00;;;;;;2263829;61;2008;-90
2022/01/21 02:16:06;613729.00;2.05;1057.93;0.00;0.00;0.62;;;;;9.40;1.00;;;;;;2264003;61;1693;-90
2022/01/21 03:04:37;1584538.00;5.28;2803.23;48614.00;0.16;84.79;;;;;9.10;1.00;;;;;;2282222;61;1422;-91
2022/01/21 03:07:05;934024.00;3.11;1615.96;90833.00;0.30;157.75;;;;;9.00;1.00;;;;;;2275836;61;925;-91
2022/01/21 03:09:34;1229185.00;4.10;2143.08;186283.00;0.62;322.31;;;;;8.60;1.00;;;;;;2275956;61;1037;-91
2022/01/21 03:12:01;1136012.00;3.79;1974.95;78688.00;0.26;136.77;;;;;8.50;1.00;;;;;;2267832;61;1000;-90
2022/01/21 03:14:28;1076658.00;3.59;1868.73;96355.00;0.32;167.28;;;;;8.40;1.00;;;;;;2267769;61;1955;-89
2022/01/21 03:17:01;1013675.00;3.38;1756.71;138429.00;0.46;239.86;;;;;8.40;1.00;;;;;;2267791;61;930;-89
2022/01/21 03:19:28;1242615.00;4.14;2167.46;83503.00;0.28;145.09;;;;;8.30;1.00;;;;;;2259740;61;977;-90
2022/01/21 03:21:57;899083.00;3.00;1554.51;173248.00;0.58;299.86;;;;;7.90;1.00;;;;;;2258888;61;1093;-91
2022/01/21 03:24:24;1119436.00;3.73;1945.22;57340.00;0.19;99.88;;;;;8.40;1.00;;;;;;2252413;61;1388;-90
2022/01/21 03:26:51;917769.00;3.06;1587.35;129097.00;0.43;223.77;;;;;8.30;1.00;;;;;;2255650;61;1082;-89
2022/01/21 03:29:18;118213104.00;394.04;66916540.00;60895.00;0.20;106.02;;;;;8.20;1.00;;;;;;2255605;61;1005;-92
2022/01/21 03:31:45;1226872.00;4.09;2138.88;80259.00;0.27;139.48;;;;;8.40;1.00;;;;;;2251753;61;960;-91
2022/01/21 03:34:12;1168223.00;3.89;2032.87;123925.00;0.41;214.85;;;;;8.70;1.00;;;;;;2247333;61;1999;-91
2022/01/21 03:36:42;1099579.00;3.67;1909.67;53656.00;0.18;93.51;;;;;8.70;1.00;;;;;;2243677;61;989;-90
2022/01/21 03:39:11;1675681.00;5.59;2978.27;344482.00;1.15;594.38;;;;;9.20;1.00;;;;;;2246928;61;987;-89
2022/01/21 03:41:39;1388451.00;4.63;2434.92;106845.00;0.36;185.39;;;;;9.00;1.00;;;;;;2252134;61;973;-91
2022/01/21 03:44:06;921712.00;3.07;1594.29;65594.00;0.22;114.15;;;;;9.60;1.00;;;;;;2255593;61;1722;-92
2022/01/21 03:46:33;1186865.00;3.96;2066.49;71290.00;0.24;123.99;;;;;9.90;1.00;;;;;;2256166;61;1704;-90
2022/01/21 03:54:27;1698253.00;5.66;3022.03;71640.00;0.24;124.59;;;;;8.90;1.00;;;;;;2277856;61;1879;-91
2022/01/21 03:56:54;844920.00;2.82;1459.58;16360.00;0.05;28.97;;;;;8.90;1.00;;;;;;2268189;61;846;-93
2022/01/21 03:59:21;1008077.00;3.36;1746.78;17464.00;0.06;30.88;;;;;8.80;1.00;;;;;;2268355;61;872;-92
2022/01/21 04:01:49;918065.00;3.06;1587.87;42689.00;0.14;74.54;;;;;8.60;1.00;;;;;;2268303;61;1421;-93
2022/01/21 04:14:37;1340400.00;4.47;2346.23;5199.00;0.02;9.63;;;;;9.50;1.00;;;;;;2282346;61;1905;-90
2022/01/21 04:17:05;765072.00;2.55;1320.28;0.00;0.00;0.62;;;;;9.30;1.00;;;;;;2280334;61;1054;-89
2022/01/21 04:19:32;781195.00;2.60;1348.35;0.00;0.00;0.62;;;;;9.30;1.00;;;;;;2271612;61;964;-90
2022/01/21 04:21:59;620021.00;2.07;1068.80;115210.00;0.38;199.82;;;;;9.60;1.00;;;;;;2271680;61;1561;-90
2022/01/21 04:24:26;692100.00;2.31;1193.54;50003.00;0.17;87.19;;;;;9.60;1.00;;;;;;2271584;61;1500;-90
2022/01/21 04:26:53;464344.00;1.55;800.46;0.00;0.00;0.62;;;;;9.70;1.00;;;;;;2271707;61;1644;-89
2022/01/21 04:29:20;661162.00;2.20;1139.95;120253.00;0.40;208.52;;;;;9.60;1.00;;;;;;2271680;61;1543;-90
2022/01/21 04:31:49;573103.00;1.91;987.80;14785.00;0.05;26.24;;;;;9.30;1.00;;;;;;2271610;61;1613;-90
2022/01/21 04:34:16;702544.00;2.34;1211.65;35526.00;0.12;62.15;;;;;9.50;1.00;;;;;;2271499;61;2020;-91
2022/01/21 04:36:43;992166.00;3.31;1718.60;38135.00;0.13;66.66;;;;;9.30;1.00;;;;;;2272723;61;960;-91
2022/01/21 04:39:16;771411.00;2.57;1331.31;14004.00;0.05;24.89;;;;;9.30;1.00;;;;;;2280203;61;1199;-91
2022/01/21 04:47:15;741872.00;2.47;1279.93;42775.00;0.14;74.69;;;;;9.20;1.00;;;;;;2280204;61;1703;-90
2022/01/21 04:47:27;240724.00;0.80;416.00;0.00;0.00;0.62;;;;;8.80;1.00;;;;;;2280909;61;1354;-90
2022/01/21 04:49:58;679534.00;2.27;1171.77;0.00;0.00;0.62;;;;;8.90;1.00;;;;;;2280912;61;1606;-90
2022/01/21 04:52:26;682201.00;2.27;1176.39;77532.00;0.26;134.77;;;;;9.10;1.00;;;;;;2280912;61;1582;-90
2022/01/21 04:54:54;775192.00;2.58;1337.89;70172.00;0.23;122.06;;;;;8.90;1.00;;;;;;2280765;61;2013;-92
2022/01/21 04:57:21;694121.00;2.31;1197.05;57098.00;0.19;99.46;;;;;9.00;1.00;;;;;;2280924;61;1630;-89
2022/01/21 04:59:48;638519.00;2.13;1100.78;310.00;0.00;1.16;;;;;9.10;1.00;;;;;;2280821;61;1635;-89
2022/01/21 05:02:15;546338.00;1.82;941.65;0.00;0.00;0.62;;;;;9.20;1.00;;;;;;2280917;61;1110;-89
2022/01/21 05:04:46;1104027.00;3.68;1917.63;71553.00;0.24;124.44;;;;;9.40;1.00;;;;;;2280841;61;1352;-88
2022/01/21 05:07:18;840277.00;2.80;1451.46;66431.00;0.22;115.59;;;;;9.00;1.00;;;;;;2280788;61;1088;-90
2022/01/21 05:09:45;656128.00;2.19;1131.24;20904.00;0.07;36.84;;;;;8.80;1.00;;;;;;2280705;61;1652;-90
2022/01/21 05:12:18;491960.00;1.64;847.98;0.00;0.00;0.62;;;;;9.00;1.00;;;;;;2280854;61;1623;-92
2022/01/21 05:25:50;1416629.00;4.72;2487.20;0.00;0.00;0.62;;;;;7.90;1.00;;;;;;2279071;61;1103;-91
2022/01/21 05:28:18;622860.00;2.08;1073.71;84443.00;0.28;146.71;;;;;8.10;1.00;;;;;;2268768;61;969;-91
2022/01/21 05:30:46;729597.00;2.43;1258.60;72366.00;0.24;125.85;;;;;8.10;1.00;;;;;;2268076;61;974;-88
2022/01/21 05:36:37;489238.00;1.63;843.30;0.00;0.00;0.62;;;;;7.80;1.00;;;;;;2268251;61;1038;-91
2022/01/21 05:39:05;767957.00;2.56;1325.30;61797.00;0.21;107.58;;;;;7.80;1.00;;;;;;2265758;61;953;-91
2022/01/21 05:41:32;732525.00;2.44;1263.69;0.00;0.00;0.62;;;;;7.50;1.00;;;;;;2264057;61;960;-91
2022/01/21 05:46:22;713552.00;2.38;1230.75;0.00;0.00;0.62;;;;;7.10;1.00;;;;;;2260008;61;1345;-90
2022/01/21 05:47:07;896197.00;2.99;1549.44;0.00;0.00;0.62;;;;;6.50;1.00;;;;;;2260789;61;1340;-91
2022/01/21 05:49:43;750866.00;2.50;1295.56;83626.00;0.28;145.30;;;;;6.20;1.00;;;;;;2255991;61;1123;-91
2022/01/21 05:52:16;1099652.00;3.67;1909.80;89967.00;0.30;156.25;;;;;5.90;1.00;;;;;;2255930;61;963;-92
2022/01/21 05:54:45;123636008.00;412.12;76564136.00;18936.00;0.06;33.43;;;;;5.70;1.00;;;;;;2248021;61;1998;-91
2022/01/21 05:57:14;370282.00;1.23;638.72;0.00;0.00;0.62;;;;;6.10;1.00;;;;;;2239899;61;936;-89
2022/01/21 05:59:43;1011541.00;3.37;1752.92;29058.00;0.10;50.95;;;;;6.60;1.00;;;;;;2240113;61;990;-91
2022/01/21 06:02:12;955136.00;3.18;1653.17;8541.00;0.03;15.42;;;;;6.90;1.00;;;;;;2250125;61;1672;-90
2022/01/21 06:04:43;721388.00;2.40;1244.35;53914.00;0.18;93.95;;;;;7.40;1.00;;;;;;2247716;61;1359;-89
2022/01/21 06:09:43;1547979.00;5.16;2733.73;17149.00;0.06;30.33;;;;;6.60;1.00;;;;;;2282314;60;1427;-90
2022/01/21 06:12:10;609626.00;2.03;1050.84;0.00;0.00;0.62;;;;;6.80;1.00;;;;;;2280704;60;1016;-90
2022/01/21 06:14:38;948245.00;3.16;1641.02;82962.00;0.28;144.15;;;;;6.90;1.00;;;;;;2279601;61;2006;-90
2022/01/21 06:17:07;439483.00;1.46;757.69;0.00;0.00;0.62;;;;;7.20;1.00;;;;;;2279569;61;1101;-91
2022/01/21 06:19:34;919082.00;3.06;1589.66;4285.00;0.01;8.05;;;;;7.50;1.00;;;;;;2271760;61;1028;-89
2022/01/21 06:22:02;818753.00;2.73;1413.85;0.00;0.00;0.62;;;;;7.40;1.00;;;;;;2263709;61;1010;-90
2022/01/21 06:24:28;768784.00;2.56;1326.74;0.00;0.00;0.62;;;;;7.20;1.00;;;;;;2263608;61;1461;-90
2022/01/21 06:27:00;967246.00;3.22;1674.55;0.00;0.00;0.62;;;;;7.40;1.00;;;;;;2263846;61;1035;-92
2022/01/21 06:29:27;662844.00;2.21;1142.86;0.00;0.00;0.62;;;;;7.50;1.00;;;;;;2263789;61;1201;-92
2022/01/21 06:31:54;830883.00;2.77;1435.04;23737.00;0.08;41.74;;;;;7.70;1.00;;;;;;2261088;61;949;-91
2022/01/21 06:34:23;671230.00;2.24;1157.38;0.00;0.00;0.62;;;;;8.10;1.00;;;;;;2267693;61;1998;-91
2022/01/21 06:44:35;1518910.00;5.06;2678.75;19857.00;0.07;35.02;;;;;7.80;1.00;;;;;;2282282;61;1419;-90
2022/01/21 06:52:27;555138.00;1.85;956.82;61906.00;0.21;107.77;;;;;7.60;1.00;;;;;;2271929;61;1014;-91
2022/01/21 06:54:54;1277452.00;4.26;2230.90;84859.00;0.28;147.43;;;;;7.60;1.00;;;;;;2271311;61;1923;-90
2022/01/21 06:57:45;987621.00;3.29;1710.56;153550.00;0.51;265.93;;;;;7.50;1.00;;;;;;2271645;61;996;-89
2022/01/21 07:02:58;1856459.00;6.19;3333.63;61231.00;0.20;106.60;;;;;6.50;1.00;;;;;;2283139;61;1298;-91
2022/01/21 07:15:41;1309966.00;4.37;2290.36;0.00;0.00;0.62;;;;;5.90;1.00;;;;;;2273612;61;1231;-89
2022/01/21 07:18:08;120634856.00;402.12;71117920.00;24720.00;0.08;43.44;;;;;5.90;1.00;;;;;;2267507;61;937;-92
2022/01/21 07:46:14;1551090.00;5.17;2739.63;29829.00;0.10;52.29;;;;;6.00;1.00;;;;;;2282351;60;1165;-92
2022/01/21 07:49:24;1317924.00;4.39;2304.95;31148.00;0.10;54.57;;;;;5.90;1.00;;;;;;2271488;61;1055;-91
2022/01/21 07:51:51;1622762.00;5.41;2876.32;119187.00;0.40;206.68;;;;;5.90;1.00;;;;;;2271547;61;1011;-90
2022/01/21 07:54:19;1190083.00;3.97;2072.30;77208.00;0.26;134.21;;;;;6.20;1.00;;;;;;2271641;61;1988;-90
2022/01/21 07:56:46;1103258.00;3.68;1916.25;96038.00;0.32;166.73;;;;;6.30;1.00;;;;;;2267579;61;982;-90
2022/01/21 07:59:14;1614427.00;5.38;2860.34;171865.00;0.57;297.48;;;;;6.30;1.00;;;;;;2267663;61;1040;-90
2022/01/21 08:01:43;1382250.00;4.61;2423.44;79647.00;0.27;138.43;;;;;6.40;1.00;;;;;;2259530;61;1032;-90
2022/01/21 08:04:12;1149345.00;3.83;1998.90;61559.00;0.21;107.17;;;;;6.40;1.00;;;;;;2255732;61;1383;-91
2022/01/21 08:06:40;1136108.00;3.79;1975.12;46542.00;0.16;81.21;;;;;6.40;1.00;;;;;;2262957;61;988;-90
2022/01/21 08:09:09;1103852.00;3.68;1917.31;50020.00;0.17;87.22;;;;;6.30;1.00;;;;;;2267480;61;978;-90
2022/01/21 08:11:36;1312453.00;4.37;2294.91;119434.00;0.40;207.11;;;;;6.30;1.00;;;;;;2263468;61;953;-91
2022/01/21 08:14:03;1506261.00;5.02;2654.91;160558.00;0.54;278.00;;;;;6.40;1.00;;;;;;2255416;61;1924;-89
2022/01/21 08:16:32;1623117.00;5.41;2877.00;155501.00;0.52;269.29;;;;;6.50;1.00;;;;;;2251402;61;1007;-91
2022/01/21 08:19:03;919446.00;3.06;1590.30;0.00;0.00;0.62;;;;;6.50;1.00;;;;;;2246339;61;1011;-91
2022/01/21 08:21:30;1056600.00;3.52;1832.98;56515.00;0.19;98.45;;;;;6.60;1.00;;;;;;2256151;61;1023;-90
2022/01/21 08:23:57;898242.00;2.99;1553.03;57400.00;0.19;99.98;;;;;6.70;1.00;;;;;;2255437;61;1450;-91
2022/01/21 08:26:27;1186868.00;3.96;2066.50;35669.00;0.12;62.39;;;;;6.60;1.00;;;;;;2250815;61;994;-90
2022/01/21 08:28:56;694093.00;2.31;1197.00;0.00;0.00;0.62;;;;;6.90;1.00;;;;;;2248202;61;1022;-93
2022/01/21 08:31:24;1242404.00;4.14;2167.08;65380.00;0.22;113.78;;;;;7.10;1.00;;;;;;2248088;61;974;-92
2022/01/21 08:33:52;1060986.00;3.54;1840.79;22227.00;0.07;39.13;;;;;7.20;1.00;;;;;;2256088;61;2002;-91
2022/01/21 08:38:57;2072918.00;6.91;3775.14;59410.00;0.20;103.46;;;;;6.90;1.00;;;;;;2277641;61;1337;-89
2022/01/21 09:12:28;1253206.00;4.18;2186.72;16644.00;0.06;29.46;;;;;8.10;1.00;;;;;;2282035;61;1189;-90
2022/01/21 09:14:55;930618.00;3.10;1609.96;55664.00;0.19;96.98;;;;;8.20;1.00;;;;;;2280049;61;2002;-91
2022/01/21 09:17:22;540558.00;1.80;931.68;29429.00;0.10;51.59;;;;;8.20;1.00;;;;;;2279660;61;1837;-91
2022/01/21 09:19:49;641865.00;2.14;1106.56;0.00;0.00;0.62;;;;;8.30;1.00;;;;;;2267472;61;941;-89
2022/01/21 09:22:16;530373.00;1.77;914.13;12516.00;0.04;22.31;;;;;8.20;1.00;;;;;;2267494;61;1021;-90
2022/01/21 09:24:43;552444.00;1.84;952.17;0.00;0.00;0.62;;;;;8.50;1.00;;;;;;2267392;61;1833;-90
2022/01/21 09:27:10;631220.00;2.10;1088.16;0.00;0.00;0.62;;;;;8.30;1.00;;;;;;2267492;61;999;-89
2022/01/21 09:29:41;973739.00;3.25;1686.02;0.00;0.00;0.62;;;;;8.30;1.00;;;;;;2267508;61;918;-89
2022/01/21 09:32:09;583005.00;1.94;1004.88;0.00;0.00;0.62;;;;;8.50;1.00;;;;;;2267663;61;1024;-89
2022/01/21 09:34:36;769613.00;2.57;1328.18;50812.00;0.17;88.59;;;;;8.60;1.00;;;;;;2263993;61;2011;-90
2022/01/21 09:37:04;741320.00;2.47;1278.97;11476.00;0.04;20.51;;;;;8.60;1.00;;;;;;2256510;61;1011;-89
2022/01/21 09:39:31;749589.00;2.50;1293.34;0.00;0.00;0.62;;;;;8.80;1.00;;;;;;2260002;61;950;-90
2022/01/21 09:42:01;818662.00;2.73;1413.69;37346.00;0.12;65.30;;;;;8.90;1.00;;;;;;2260102;61;995;-89
2022/01/21 09:44:30;543921.00;1.81;937.48;0.00;0.00;0.62;;;;;8.50;1.00;;;;;;2259562;61;1328;-89
2022/01/21 09:47:00;691200.00;2.30;1191.98;13899.00;0.05;24.70;;;;;8.50;1.00;;;;;;2259532;61;1140;-92
2022/01/21 09:49:28;846461.00;2.82;1462.28;15588.00;0.05;27.63;;;;;8.90;1.00;;;;;;2260094;61;983;-89
2022/01/21 09:51:58;509254.00;1.70;877.76;29701.00;0.10;52.07;;;;;9.00;1.00;;;;;;2261562;61;1049;-91
2022/01/21 09:54:27;1009486.00;3.36;1749.28;149479.00;0.50;258.91;;;;;9.20;1.00;;;;;;2270638;61;2005;-90
2022/01/21 09:56:56;478344.00;1.59;824.55;0.00;0.00;0.62;;;;;9.00;1.00;;;;;;2280671;61;1041;-91
2022/01/21 09:59:25;601825.00;2.01;1037.37;0.00;0.00;0.62;;;;;8.90;1.00;;;;;;2271925;61;1017;-92
2022/01/21 10:01:54;815671.00;2.72;1408.47;1740.00;0.01;3.64;;;;;9.10;1.00;;;;;;2263768;61;971;-88
2022/01/21 10:04:27;762038.00;2.54;1315.00;0.00;0.00;0.62;;;;;9.40;1.00;;;;;;2263912;61;1412;-89
2022/01/21 10:38:15;1466801.00;4.89;2580.80;0.00;0.00;0.62;;;;;9.30;1.00;;;;;;2282595;61;1168;-90
2022/01/21 10:40:42;1143905.00;3.81;1989.12;0.00;0.00;0.62;;;;;9.00;1.00;;;;;;2271946;61;967;-90
2022/01/21 11:01:21;870888.00;2.90;1505.05;0.00;0.00;0.62;;;;;8.90;1.00;;;;;;2282373;61;1164;-90
2022/01/21 11:04:04;838216.00;2.79;1447.86;0.00;0.00;0.62;;;;;9.30;1.00;;;;;;2273394;61;1334;-91
2022/01/21 11:06:44;133426896.00;444.76;96253680.00;0.00;0.00;0.62;;;;;9.70;1.00;;;;;;2271767;61;948;-91
2022/01/21 11:09:21;747273.00;2.49;1289.32;24167.00;0.08;42.49;;;;;9.20;1.00;;;;;;2263687;61;983;-90
2022/01/21 11:11:50;740192.00;2.47;1277.01;29000.00;0.10;50.85;;;;;9.30;1.00;;;;;;2258384;61;988;-90
2022/01/21 11:14:18;718743.00;2.40;1239.76;43212.00;0.14;75.45;;;;;9.70;1.00;;;;;;2259554;61;1985;-90
2022/01/21 11:16:57;1078749.00;3.60;1872.46;20545.00;0.07;36.21;;;;;9.80;1.00;;;;;;2259479;61;1014;-90
2022/01/21 11:19:28;457305.00;1.52;788.35;0.00;0.00;0.62;;;;;9.50;1.00;;;;;;2259844;61;1041;-91
2022/01/21 11:21:58;416133.00;1.39;717.54;0.00;0.00;0.62;;;;;9.00;1.00;;;;;;2255658;61;998;-92
2022/01/21 11:24:27;467051.00;1.56;805.12;0.00;0.00;0.62;;;;;9.50;1.00;;;;;;2259085;61;1397;-89
2022/01/21 11:27:16;748954.00;2.50;1292.24;10168.00;0.03;18.24;;;;;9.90;1.00;;;;;;2261614;61;997;-89
2022/01/21 11:29:45;692521.00;2.31;1194.27;0.00;0.00;0.62;;;;;9.70;1.00;;;;;;2251614;61;1017;-89
2022/01/21 11:32:15;676763.00;2.26;1166.97;29123.00;0.10;51.07;;;;;9.50;1.00;;;;;;2248320;61;941;-90
2022/01/21 11:34:42;776737.00;2.59;1340.58;0.00;0.00;0.62;;;;;9.30;1.00;;;;;;2251651;61;2001;-88
2022/01/21 11:37:11;598696.00;2.00;1031.97;0.00;0.00;0.62;;;;;9.10;1.00;;;;;;2248355;61;1003;-88
2022/01/21 11:39:38;529683.00;1.77;912.95;0.00;0.00;0.62;;;;;9.40;1.00;;;;;;2246371;61;1032;-91
2022/01/21 11:42:07;507460.00;1.69;874.67;0.00;0.00;0.62;;;;;9.60;1.00;;;;;;2243701;62;993;-90
2022/01/21 11:44:38;823808.00;2.75;1422.68;30392.00;0.10;53.26;;;;;9.50;1.00;;;;;;2243235;62;1366;-89
2022/01/21 11:47:28;749955.00;2.50;1293.98;55342.00;0.18;96.42;;;;;9.30;1.00;;;;;;2238731;61;1031;-89
2022/01/21 11:49:59;893835.00;2.98;1545.29;0.00;0.00;0.62;;;;;9.50;1.00;;;;;;2251775;61;1083;-90
2022/01/21 11:52:27;554691.00;1.85;956.05;0.00;0.00;0.62;;;;;9.70;1.00;;;;;;2248319;61;1015;-89
2022/01/21 11:54:54;929170.00;3.10;1607.41;36217.00;0.12;63.34;;;;;10.10;1.00;;;;;;2247409;61;1920;-89
2022/01/21 11:57:31;780319.00;2.60;1346.82;0.00;0.00;0.62;;;;;9.80;1.00;;;;;;2250436;61;1140;-89
2022/01/21 12:00:12;731040.00;2.44;1261.11;12246.00;0.04;21.84;;;;;9.80;1.00;;;;;;2257188;61;1002;-88
2022/01/21 12:02:39;717722.00;2.39;1237.98;0.00;0.00;0.62;;;;;10.00;1.00;;;;;;2258991;61;1380;-91
2022/01/21 12:05:09;644990.00;2.15;1111.97;0.00;0.00;0.62;;;;;9.70;1.00;;;;;;2259558;61;1047;-90
2022/01/21 12:07:49;748207.00;2.49;1290.94;0.00;0.00;0.62;;;;;9.80;1.00;;;;;;2270882;61;1029;-89
2022/01/21 12:10:31;488739.00;1.63;842.44;0.00;0.00;0.62;;;;;9.90;1.00;;;;;;2263619;61;958;-90
2022/01/21 12:13:03;725660.00;2.42;1251.77;0.00;0.00;0.62;;;;;9.70;1.00;;;;;;2267620;61;1419;-89
2022/01/21 12:19:24;717594.00;2.39;1237.76;25417.00;0.08;44.65;;;;;9.90;1.00;;;;;;2259477;61;1154;-91
2022/01/21 12:21:53;675627.00;2.25;1165.00;18446.00;0.06;32.58;;;;;10.10;1.00;;;;;;2255479;61;1009;-90
2022/01/21 12:24:55;831621.00;2.77;1436.33;34129.00;0.11;59.73;;;;;9.30;1.00;;;;;;2255602;61;1448;-88
2022/01/21 12:27:25;497904.00;1.66;858.22;0.00;0.00;0.62;;;;;9.60;1.00;;;;;;2240019;61;1151;-90
2022/01/21 12:30:07;526613.00;1.76;907.66;0.00;0.00;0.62;;;;;9.40;1.00;;;;;;2231832;62;954;-89
2022/01/21 12:32:53;632362.00;2.11;1090.13;0.00;0.00;0.62;;;;;9.90;1.00;;;;;;2231785;62;1310;-90
2022/01/21 12:35:20;421195.00;1.40;726.25;0.00;0.00;0.62;;;;;10.40;1.00;;;;;;2231199;62;2011;-90
2022/01/21 12:41:30;164604112.00;548.68;180839664.00;0.00;0.00;0.62;;;;;10.70;1.00;;;;;;2239196;62;1030;-89
2022/01/21 12:46:40;881211.00;2.94;1523.14;0.00;0.00;0.62;;;;;9.90;1.00;;;;;;2278302;61;1293;-90
2022/01/21 12:49:36;962739.00;3.21;1666.59;92766.00;0.31;161.08;;;;;9.60;1.00;;;;;;2276125;61;1075;-89
2022/01/21 12:52:25;895185.00;2.98;1547.66;63269.00;0.21;110.13;;;;;9.50;1.00;;;;;;2263489;61;1126;-89
2022/01/21 13:02:41;979817.00;3.27;1696.76;64069.00;0.21;111.51;;;;;9.80;1.00;;;;;;2286778;61;1253;-88
2022/01/21 13:05:17;778559.00;2.60;1343.76;63766.00;0.21;110.99;;;;;9.80;1.00;;;;;;2284751;61;1065;-91
2022/01/21 13:07:52;884434.00;2.95;1528.80;67212.00;0.22;116.94;;;;;10.00;1.00;;;;;;2279990;60;1026;-91
2022/01/21 13:10:26;126819872.00;422.73;82638816.00;107389.00;0.36;186.32;;;;;9.60;1.00;;;;;;2280224;60;1021;-89
2022/01/21 13:13:15;792948.00;2.64;1368.83;65455.00;0.22;113.91;;;;;9.40;1.00;;;;;;2271519;60;1404;-89
2022/01/21 13:15:45;1133799.00;3.78;1970.97;74874.00;0.25;130.18;;;;;9.60;1.00;;;;;;2270518;61;1913;-88
2022/01/21 13:18:15;1409432.00;4.70;2473.83;144190.00;0.48;249.79;;;;;9.30;1.00;;;;;;2263973;61;1038;-90
2022/01/21 13:20:44;846808.00;2.82;1462.88;127957.00;0.43;221.81;;;;;9.20;1.00;;;;;;2264034;61;1081;-90
2022/01/21 13:23:13;988913.00;3.30;1712.85;81279.00;0.27;141.25;;;;;9.30;1.00;;;;;;2263723;61;1422;-91
2022/01/21 13:25:45;947628.00;3.16;1639.93;67411.00;0.22;117.29;;;;;9.30;1.00;;;;;;2257763;61;970;-90
2022/01/21 13:28:12;758417.00;2.53;1308.70;82935.00;0.28;144.11;;;;;9.50;1.00;;;;;;2259807;61;1025;-91
2022/01/21 13:30:39;824837.00;2.75;1424.47;74680.00;0.25;129.85;;;;;9.30;1.00;;;;;;2259828;61;1034;-90
2022/01/21 13:33:09;836945.00;2.79;1445.63;27851.00;0.09;48.86;;;;;9.30;1.00;;;;;;2260871;61;1273;-91
2022/01/21 13:35:38;614125.00;2.05;1058.62;0.00;0.00;0.62;;;;;9.30;1.00;;;;;;2256674;61;2005;-90
2022/01/21 13:41:29;780022.00;2.60;1346.30;19995.00;0.07;35.26;;;;;9.60;1.00;;;;;;2276173;61;936;-89
2022/01/21 13:44:05;885148.00;2.95;1530.05;0.00;0.00;0.62;;;;;8.90;1.00;;;;;;2272637;61;1380;-89
2022/01/21 13:46:34;921392.00;3.07;1593.72;51134.00;0.17;89.15;;;;;8.60;1.00;;;;;;2276121;61;1050;-91
2022/01/21 13:49:05;1045228.00;3.48;1812.74;68669.00;0.23;119.46;;;;;8.60;1.00;;;;;;2276138;61;1057;-90
2022/01/21 13:51:32;1547599.00;5.16;2733.01;159580.00;0.53;276.32;;;;;8.40;1.00;;;;;;2276141;61;926;-90
2022/01/21 13:54:04;1190584.00;3.97;2073.21;125667.00;0.42;217.86;;;;;8.20;1.00;;;;;;2267897;61;1301;-90
2022/01/21 13:56:32;1062356.00;3.54;1843.23;12114.00;0.04;21.61;;;;;8.30;1.00;;;;;;2255898;61;2005;-88
2022/01/21 13:58:59;1239944.00;4.13;2162.61;95208.00;0.32;165.30;;;;;8.70;1.00;;;;;;2247920;61;987;-90
2022/01/21 14:01:30;1407374.00;4.69;2470.01;97793.00;0.33;169.76;;;;;9.00;1.00;;;;;;2249709;61;967;-90
2022/01/21 14:03:58;850153.00;2.83;1468.74;52938.00;0.18;92.27;;;;;8.80;1.00;;;;;;2255783;61;1406;-91
2022/01/21 14:06:25;836807.00;2.79;1445.39;93395.00;0.31;162.17;;;;;8.70;1.00;;;;;;2255513;61;1014;-88
2022/01/21 14:08:54;701436.00;2.34;1209.73;61111.00;0.20;106.40;;;;;8.70;1.00;;;;;;2255921;61;999;-90
2022/01/21 14:11:26;742453.00;2.47;1280.94;64379.00;0.21;112.05;;;;;8.60;1.00;;;;;;2254913;61;1020;-91
2022/01/21 14:14:00;1014667.00;3.38;1758.47;129371.00;0.43;224.24;;;;;8.60;1.00;;;;;;2252791;61;1406;-89
2022/01/21 14:26:42;1555240.00;5.18;2747.50;71579.00;0.24;124.49;;;;;5.90;1.00;;;;;;2282523;61;1224;-89
2022/01/21 14:31:41;1952379.00;6.51;3527.00;62227.00;0.21;108.33;;;;;6.40;1.00;;;;;;2282255;61;1435;-89
2022/01/21 14:34:23;942546.00;3.14;1630.97;0.00;0.00;0.62;;;;;6.90;1.00;;;;;;2279906;61;1485;-88
2022/01/21 14:37:03;925374.00;3.08;1600.73;0.00;0.00;0.62;;;;;7.10;1.00;;;;;;2275773;61;2000;-92
2022/01/21 14:42:05;1442500.00;4.81;2535.38;0.00;0.00;0.62;;;;;7.20;1.00;;;;;;2282057;61;1307;-90
2022/01/21 14:44:34;1587279.00;5.29;2808.45;0.00;0.00;0.62;;;;;7.50;1.00;;;;;;2280552;61;1415;-91
2022/01/21 14:47:12;1141188.00;3.80;1984.24;63102.00;0.21;109.84;;;;;7.50;1.00;;;;;;2280456;61;997;-90
2022/01/21 14:49:41;622450.00;2.07;1073.00;0.00;0.00;0.62;;;;;7.70;1.00;;;;;;2280599;61;1015;-91
2022/01/21 14:54:55;622945.00;2.08;1073.86;6556.00;0.02;11.98;;;;;7.80;1.00;;;;;;2280595;61;1329;-90
2022/01/21 14:57:29;643436.00;2.14;1109.28;0.00;0.00;0.62;;;;;7.50;1.00;;;;;;2280503;61;1977;-90
2022/01/21 14:59:59;922998.00;3.08;1596.55;12882.00;0.04;22.94;;;;;7.60;1.00;;;;;;2270063;61;1022;-90
2022/01/21 15:02:30;1059537.00;3.53;1838.21;42159.00;0.14;73.62;;;;;8.10;1.00;;;;;;2273450;61;1005;-90
2022/01/21 15:04:58;1041046.00;3.47;1805.31;79213.00;0.26;137.68;;;;;8.50;1.00;;;;;;2273402;61;1380;-91
2022/01/21 15:07:27;663504.00;2.21;1144.01;77106.00;0.26;134.04;;;;;8.40;1.00;;;;;;2271864;61;988;-90
2022/01/21 15:09:56;688466.00;2.29;1187.24;67432.00;0.22;117.32;;;;;8.10;1.00;;;;;;2265166;61;990;-91
2022/01/21 15:15:30;378128.00;1.26;652.21;0.00;0.00;0.62;;;;;7.70;1.00;;;;;;2271846;61;1989;-90
2022/01/21 15:18:00;506436.00;1.69;872.91;0.00;0.00;0.62;;;;;8.00;1.00;;;;;;2266749;61;982;-90
2022/01/21 15:20:34;554218.00;1.85;955.23;0.00;0.00;0.62;;;;;7.90;1.00;;;;;;2259743;61;935;-89
2022/01/21 15:23:02;1077482.00;3.59;1870.20;94193.00;0.31;163.55;;;;;7.60;1.00;;;;;;2253077;61;1416;-91
2022/01/21 15:25:31;619839.00;2.07;1068.49;0.00;0.00;0.62;;;;;7.40;1.00;;;;;;2259580;61;994;-91
2022/01/21 15:27:58;438459.00;1.46;755.93;0.00;0.00;0.62;;;;;7.30;1.00;;;;;;2251638;61;984;-90
2022/01/21 15:30:26;496460.00;1.65;855.73;0.00;0.00;0.62;;;;;7.00;1.00;;;;;;2244980;61;1014;-92
2022/01/21 15:32:57;118842064.00;396.14;67991320.00;0.00;0.00;0.62;;;;;6.90;1.00;;;;;;2251737;61;1400;-92